Time;durP1;ratioP1;P1;durP2;ratioP2;P2;SDS_P1;SDS_P2;PMS_P1;PMS_P2;Temp;Humidity;BMP_temperature;BMP_pressure;BME280_temperature;BME280_humidity;BME280_pressure;Samples;Min_cycle;Max_cycle;Signal;HPM_P1;HPM_P2
2021/10/04 00:00:51;;;;;;;4.32;2.17;;;;;;;12.94;86.26;101061.31;5033474;28;20496;-53
2021/10/04 00:03:19;;;;;;;4.75;2.33;;;;;;;12.93;85.95;101070.63;5033837;28;20053;-52
2021/10/04 00:05:47;;;;;;;6.18;2.47;;;;;;;12.91;85.31;101078.28;5033307;28;20045;-52
2021/10/04 00:08:14;;;;;;;6.68;2.45;;;;;;;12.88;85.70;101084.31;5033559;28;20041;-54
2021/10/04 00:10:42;;;;;;;4.57;2.22;;;;;;;12.86;86.21;101087.31;5033451;28;20040;-52
2021/10/04 00:13:10;;;;;;;4.72;2.17;;;;;;;12.86;86.51;101097.44;5033944;28;20120;-52
2021/10/04 00:15:38;;;;;;;4.68;1.95;;;;;;;12.88;86.52;101100.72;5033151;28;20057;-53
2021/10/04 00:18:06;;;;;;;5.88;2.28;;;;;;;12.83;85.77;101106.19;5033223;28;20411;-49
2021/10/04 00:20:34;;;;;;;4.60;2.00;;;;;;;12.78;85.35;101105.09;5032053;28;20042;-52
2021/10/04 00:23:02;;;;;;;4.15;1.95;;;;;;;12.73;85.57;101107.03;5033627;28;20049;-48
2021/10/04 00:25:30;;;;;;;5.68;2.10;;;;;;;12.66;85.83;101112.78;5033715;28;20041;-49
2021/10/04 00:27:57;;;;;;;7.10;2.28;;;;;;;12.59;86.13;101114.97;5033505;28;20042;-52
2021/10/04 00:30:26;;;;;;;6.10;1.73;;;;;;;12.62;87.02;101119.88;5032921;28;20084;-52
2021/10/04 00:32:55;;;;;;;5.32;1.90;;;;;;;12.60;87.26;101119.34;5032863;28;20544;-49
2021/10/04 00:35:25;;;;;;;4.60;2.20;;;;;;;12.63;87.19;101118.81;5032588;28;20393;-49
2021/10/04 00:37:53;;;;;;;4.25;2.00;;;;;;;12.69;87.45;101120.41;5032653;28;20485;-49
2021/10/04 00:40:28;;;;;;;3.22;1.73;;;;;;;12.69;86.67;101120.41;5021368;28;20050;-52
2021/10/04 00:42:57;;;;;;;7.05;2.72;;;;;;;12.71;86.62;101112.78;5033098;28;20041;-52
2021/10/04 00:45:26;;;;;;;2.83;1.50;;;;;;;12.67;87.03;101117.13;5032558;28;20535;-49
2021/10/04 00:47:54;;;;;;;6.20;2.00;;;;;;;12.64;86.89;101125.09;5032636;28;20042;-49
2021/10/04 00:50:24;;;;;;;3.45;1.88;;;;;;;12.66;87.08;101134.66;5032354;28;20140;-48
2021/10/04 00:52:53;;;;;;;3.67;1.85;;;;;;;12.64;86.62;101141.47;5033253;28;20064;-52
2021/10/04 00:55:21;;;;;;;7.28;1.98;;;;;;;12.65;86.85;101141.22;5033356;28;20045;-51
2021/10/04 00:57:49;;;;;;;4.40;1.90;;;;;;;12.60;87.26;101143.94;5033143;28;20041;-51
2021/10/04 01:00:19;;;;;;;3.92;1.95;;;;;;;12.61;86.41;101142.03;5031222;28;20054;-49
2021/10/04 01:02:57;;;;;;;5.18;1.90;;;;;;;12.51;87.14;101142.88;5020639;28;20099;-52
2021/10/04 01:05:25;;;;;;;4.07;1.67;;;;;;;12.52;87.33;101144.50;5032599;28;20051;-50
2021/10/04 01:07:53;;;;;;;5.97;1.70;;;;;;;12.56;87.20;101153.78;5032463;28;20512;-48
2021/10/04 01:10:21;;;;;;;6.03;1.83;;;;;;;12.65;86.98;101160.34;5032475;28;20053;-49
2021/10/04 01:12:50;;;;;;;4.35;2.00;;;;;;;12.66;86.95;101161.19;5032614;28;20091;-50
2021/10/04 01:15:19;;;;;;;4.60;1.85;;;;;;;12.72;87.17;101157.31;5031983;28;20041;-50
2021/10/04 01:17:47;;;;;;;5.68;1.70;;;;;;;12.71;86.89;101145.56;5031417;28;20037;-52
2021/10/04 01:20:16;;;;;;;4.70;1.70;;;;;;;12.75;87.13;101146.69;5031797;28;20107;-51
2021/10/04 01:22:44;;;;;;;3.83;1.60;;;;;;;12.78;86.64;101145.31;5032694;28;20041;-52
2021/10/04 01:25:12;;;;;;;4.57;1.85;;;;;;;12.78;86.69;101146.13;5032381;28;20091;-54
2021/10/04 01:27:41;;;;;;;5.38;1.58;;;;;;;12.74;86.39;101155.97;5032398;28;20068;-52
2021/10/04 01:30:10;;;;;;;2.47;1.67;;;;;;;12.77;87.67;101155.44;5031411;28;20056;-52
2021/10/04 01:32:39;;;;;;;6.63;1.92;;;;;;;12.75;86.98;101156.81;5031843;28;20128;-51
2021/10/04 01:35:07;;;;;;;4.93;1.75;;;;;;;12.73;86.85;101148.88;5032286;28;20128;-52
2021/10/04 01:37:35;;;;;;;3.97;1.60;;;;;;;12.72;86.11;101163.63;5026506;28;20046;-49
2021/10/04 01:40:06;;;;;;;4.80;1.50;;;;;;;12.73;86.40;101165.25;5027581;28;20046;-52
2021/10/04 01:42:34;;;;;;;2.97;1.30;;;;;;;12.71;86.38;101164.72;5031682;28;20109;-52
2021/10/04 01:45:03;;;;;;;3.17;1.60;;;;;;;12.71;85.97;101161.16;5031439;28;20048;-51
2021/10/04 01:47:31;;;;;;;4.82;1.55;;;;;;;12.71;86.19;101167.44;5031896;28;20075;-50
2021/10/04 01:49:58;;;;;;;5.20;1.70;;;;;;;12.75;87.15;101162.28;5031827;28;20103;-52
2021/10/04 01:52:26;;;;;;;4.97;1.70;;;;;;;12.70;86.13;101159.50;5030676;28;20049;-51
2021/10/04 01:54:54;;;;;;;4.38;1.75;;;;;;;12.69;86.22;101158.69;5031748;28;20049;-52
2021/10/04 01:57:22;;;;;;;7.00;1.95;;;;;;;12.73;86.98;101154.31;5031984;28;20041;-52
2021/10/04 01:59:50;;;;;;;3.17;1.60;;;;;;;12.71;85.98;101151.03;5031185;28;20103;-51
2021/10/04 02:02:17;;;;;;;3.13;1.50;;;;;;;12.66;85.57;101153.78;5031921;28;20053;-52
2021/10/04 02:04:47;;;;;;;3.45;1.60;;;;;;;12.66;86.00;101156.53;5030730;28;20049;-51
2021/10/04 02:07:14;;;;;;;3.40;1.75;;;;;;;12.66;85.25;101148.31;5031850;28;20041;-53
2021/10/04 02:09:47;;;;;;;3.95;1.33;;;;;;;12.65;86.00;101151.31;5031606;28;20493;-53
2021/10/04 02:12:16;;;;;;;3.50;1.50;;;;;;;12.63;85.54;101150.75;5029503;28;20385;-51
2021/10/04 02:14:44;;;;;;;3.38;2.00;;;;;;;12.67;86.81;101152.69;5031224;28;20060;-53
2021/10/04 02:17:12;;;;;;;3.95;1.60;;;;;;;12.63;85.87;101151.59;5031364;28;20103;-52
2021/10/04 02:19:39;;;;;;;3.15;1.60;;;;;;;12.64;85.94;101166.91;5031704;28;20041;-51
2021/10/04 02:22:07;;;;;;;3.20;1.48;;;;;;;12.61;85.93;101156.53;5031005;28;20577;-52
2021/10/04 02:24:35;;;;;;;4.43;1.80;;;;;;;12.71;86.07;101161.16;5031301;28;20033;-52
2021/10/04 02:27:02;;;;;;;3.78;1.70;;;;;;;12.58;84.91;101162.53;5031345;28;20049;-50
2021/10/04 02:29:30;;;;;;;3.85;1.65;;;;;;;12.46;85.75;101154.59;5031156;28;20447;-52
2021/10/04 02:31:58;;;;;;;2.17;1.20;;;;;;;12.46;86.24;101170.16;5031302;28;20041;-52
2021/10/04 02:34:25;;;;;;;6.70;1.50;;;;;;;12.51;86.31;101164.72;5031492;28;20053;-52
2021/10/04 02:36:53;;;;;;;6.05;1.85;;;;;;;12.56;86.49;101156.53;5031558;28;20116;-53
2021/10/04 02:39:21;;;;;;;5.10;1.88;;;;;;;12.51;85.13;101151.06;5030443;28;20053;-52
2021/10/04 02:41:48;;;;;;;3.70;1.40;;;;;;;12.43;85.58;101157.88;5030911;28;20064;-51
2021/10/04 02:44:16;;;;;;;3.92;1.40;;;;;;;12.39;85.68;101155.94;5030817;28;20045;-52
2021/10/04 02:46:44;;;;;;;4.25;1.52;;;;;;;12.29;85.34;101165.78;5031153;28;20037;-52
2021/10/04 02:49:12;;;;;;;5.03;2.05;;;;;;;12.26;86.28;101163.59;5031296;28;20128;-52
2021/10/04 02:51:40;;;;;;;2.42;1.60;;;;;;;12.29;86.13;101159.50;5031547;28;20045;-50
2021/10/04 02:54:08;;;;;;;10.20;2.03;;;;;;;12.35;85.89;101158.41;5031241;28;20056;-49
2021/10/04 02:56:35;;;;;;;2.67;1.67;;;;;;;12.37;86.34;101156.25;5031197;28;20033;-52
2021/10/04 02:59:03;;;;;;;4.80;1.67;;;;;;;12.35;85.21;101172.06;5035370;28;20033;-54
2021/10/04 03:01:31;;;;;;;3.83;1.45;;;;;;;12.38;86.17;101173.44;5037371;28;20443;-51
2021/10/04 03:03:59;;;;;;;7.03;1.77;;;;;;;12.44;85.46;101173.19;5038341;28;20038;-52
2021/10/04 03:06:27;;;;;;;3.80;1.23;;;;;;;12.46;86.17;101167.44;5033301;28;20049;-53
2021/10/04 03:08:54;;;;;;;5.25;1.70;;;;;;;12.42;85.84;101167.16;5031626;28;20045;-51
2021/10/04 03:11:22;;;;;;;5.68;1.73;;;;;;;12.43;85.89;101176.19;5030765;28;20045;-52
2021/10/04 03:13:50;;;;;;;3.13;1.55;;;;;;;12.47;85.73;101172.63;5031009;28;20041;-53
2021/10/04 03:16:17;;;;;;;3.70;1.52;;;;;;;12.50;85.29;101176.72;5030768;28;20397;-48
2021/10/04 03:18:45;;;;;;;3.35;1.38;;;;;;;12.53;86.07;101187.13;5031610;28;20038;-52
2021/10/04 03:21:13;;;;;;;3.25;1.48;;;;;;;12.52;85.61;101186.31;5030504;28;20049;-52
2021/10/04 03:23:40;;;;;;;2.80;1.60;;;;;;;12.49;85.25;101192.31;5030545;28;20049;-48
2021/10/04 03:26:09;;;;;;;3.60;1.30;;;;;;;12.51;85.20;101200.25;5030690;28;20099;-51
2021/10/04 03:28:36;;;;;;;3.95;1.75;;;;;;;12.52;85.59;101197.22;5030501;28;20084;-52
2021/10/04 03:31:04;;;;;;;4.57;1.40;;;;;;;12.51;84.98;101201.06;5030859;28;20065;-48
2021/10/04 03:33:32;;;;;;;5.32;1.58;;;;;;;12.50;85.15;101199.41;5030810;28;20160;-50
2021/10/04 03:36:00;;;;;;;4.78;1.52;;;;;;;12.49;84.86;101196.97;5030860;28;20042;-52
2021/10/04 03:38:28;;;;;;;7.20;1.80;;;;;;;12.51;85.67;101197.53;5031138;28;20053;-50
2021/10/04 03:40:56;;;;;;;3.55;1.60;;;;;;;12.49;84.85;101197.78;5033020;28;20048;-51
2021/10/04 03:43:24;;;;;;;3.95;1.50;;;;;;;12.51;85.21;101203.00;5033549;28;20042;-52
2021/10/04 03:45:52;;;;;;;4.78;1.40;;;;;;;12.51;84.75;101208.47;5020358;28;20053;-50
2021/10/04 03:48:20;;;;;;;3.63;1.67;;;;;;;12.50;84.36;101234.94;5034749;28;20037;-52
2021/10/04 03:50:48;;;;;;;3.47;1.40;;;;;;;12.48;84.63;101239.88;5034213;28;20107;-52
2021/10/04 03:53:16;;;;;;;5.13;1.67;;;;;;;12.46;84.25;101233.03;5034153;28;20081;-49
2021/10/04 03:55:44;;;;;;;5.03;1.83;;;;;;;12.47;84.38;101229.22;5033884;28;20052;-55
2021/10/04 03:58:11;;;;;;;3.33;1.42;;;;;;;12.45;84.42;101226.75;5032649;28;20041;-53
2021/10/04 04:00:39;;;;;;;5.28;1.63;;;;;;;12.40;84.62;101223.19;5034323;28;20048;-55
2021/10/04 04:03:07;;;;;;;5.22;1.90;;;;;;;12.36;84.56;101226.47;5033718;28;20501;-54
2021/10/04 04:05:35;;;;;;;4.28;1.60;;;;;;;12.33;84.63;101227.00;5033986;28;20488;-52
2021/10/04 04:08:03;;;;;;;5.75;1.75;;;;;;;12.34;84.57;101228.66;5034093;28;20120;-52
2021/10/04 04:10:31;;;;;;;5.60;1.90;;;;;;;12.33;84.08;101218.78;5033808;28;20056;-53
2021/10/04 04:13:18;;;;;;;5.25;1.65;;;;;;;12.30;84.83;101233.00;5032876;28;20129;-51
2021/10/04 04:16:06;;;;;;;4.47;1.60;;;;;;;12.35;85.52;101243.94;5026406;28;20077;-51
2021/10/04 04:18:54;;;;;;;3.38;1.83;;;;;;;12.34;84.65;101244.22;5033713;28;20045;-53
2021/10/04 04:21:42;;;;;;;4.65;1.80;;;;;;;12.34;85.31;101239.56;5033232;28;20053;-53
2021/10/04 04:24:30;;;;;;;4.10;1.88;;;;;;;12.36;84.95;101237.41;5032474;28;20053;-52
2021/10/04 04:26:59;;;;;;;3.72;1.80;;;;;;;12.34;84.49;101234.13;5032820;28;20116;-52
2021/10/04 04:29:27;;;;;;;2.90;1.58;;;;;;;12.35;85.38;101241.22;5033558;28;20435;-49
2021/10/04 04:31:54;;;;;;;3.55;1.52;;;;;;;12.36;85.41;101236.56;5033277;28;20489;-51
2021/10/04 04:34:22;;;;;;;4.72;1.45;;;;;;;12.36;85.21;101231.94;5033489;28;20128;-49
2021/10/04 04:36:50;;;;;;;4.18;1.77;;;;;;;12.36;84.61;101234.66;5031936;28;20492;-51
2021/10/04 04:39:18;;;;;;;3.70;1.52;;;;;;;12.36;84.45;101237.41;5033467;28;20073;-53
2021/10/04 04:41:45;;;;;;;6.50;1.80;;;;;;;12.35;84.49;101248.59;5033073;28;20045;-51
2021/10/04 04:44:13;;;;;;;4.75;1.73;;;;;;;12.31;84.37;101239.28;5033195;28;20404;-52
2021/10/04 04:46:41;;;;;;;2.45;1.50;;;;;;;12.30;84.86;101248.59;5032481;28;20041;-52
2021/10/04 04:49:08;;;;;;;2.78;1.27;;;;;;;12.27;84.88;101255.41;5033356;28;20069;-53
2021/10/04 04:51:36;;;;;;;4.22;1.45;;;;;;;12.25;84.46;101262.22;5032556;28;20045;-52
2021/10/04 04:54:04;;;;;;;4.82;1.50;;;;;;;12.27;85.38;101269.06;5026523;28;20045;-51
2021/10/04 04:56:32;;;;;;;2.40;1.42;;;;;;;12.32;85.74;101262.81;5032606;28;20045;-52
2021/10/04 04:59:00;;;;;;;4.25;1.52;;;;;;;12.32;85.38;101271.81;5032659;28;20042;-51
2021/10/04 05:01:28;;;;;;;5.38;1.80;;;;;;;12.31;84.98;101264.72;5032767;28;20488;-52
2021/10/04 05:03:56;;;;;;;6.13;1.70;;;;;;;12.31;85.23;101272.91;5032976;28;20128;-51
2021/10/04 05:06:24;;;;;;;2.90;1.48;;;;;;;12.30;84.79;101271.25;5032589;28;20044;-52
2021/10/04 05:08:51;;;;;;;12.32;1.83;;;;;;;12.36;87.11;101285.75;5032081;28;20049;-52
2021/10/04 05:11:19;;;;;;;6.43;1.80;;;;;;;12.35;86.20;101284.94;5032706;28;20120;-54
2021/10/04 05:13:47;;;;;;;3.15;1.50;;;;;;;12.43;87.80;101277.28;5032678;28;20472;-52
2021/10/04 05:16:15;;;;;;;3.30;1.33;;;;;;;12.41;86.41;101265.81;5032373;28;20389;-50
2021/10/04 05:18:43;;;;;;;4.05;1.75;;;;;;;12.45;86.69;101267.75;5032507;28;20083;-52
2021/10/04 05:21:11;;;;;;;2.42;1.25;;;;;;;12.42;86.19;101267.47;5032105;28;20052;-52
2021/10/04 05:23:39;;;;;;;6.28;1.60;;;;;;;12.42;85.96;101278.41;5032197;28;20435;-53
2021/10/04 05:26:07;;;;;;;5.10;1.75;;;;;;;12.41;85.58;101271.28;5032388;28;20048;-52
2021/10/04 05:28:35;;;;;;;4.43;1.42;;;;;;;12.43;86.96;101277.28;5031901;28;20046;-52
2021/10/04 05:31:03;;;;;;;3.95;1.67;;;;;;;12.40;85.81;101280.56;5032630;28;20065;-52
2021/10/04 05:33:31;;;;;;;3.25;1.50;;;;;;;12.46;87.07;101287.69;5032036;28;20041;-51
2021/10/04 05:35:59;;;;;;;2.75;1.60;;;;;;;12.50;86.88;101291.53;5032470;28;20044;-53
2021/10/04 05:38:27;;;;;;;7.10;2.25;;;;;;;12.52;87.33;101301.09;5031667;28;20160;-52
2021/10/04 05:40:54;;;;;;;9.82;1.95;;;;;;;12.55;86.11;101297.84;5031938;28;20116;-54
2021/10/04 05:43:22;;;;;;;5.45;1.65;;;;;;;12.54;86.31;101289.91;5031750;28;20041;-52
2021/10/04 05:45:50;;;;;;;7.97;1.75;;;;;;;12.61;87.20;101293.22;5031881;28;20053;-51
2021/10/04 05:48:18;;;;;;;4.22;1.50;;;;;;;12.61;87.21;101293.22;5031677;28;20063;-51
2021/10/04 05:50:49;;;;;;;5.75;1.85;;;;;;;12.61;87.50;101304.16;5031367;28;20481;-47
2021/10/04 05:53:17;;;;;;;4.07;1.45;;;;;;;12.87;89.40;101306.91;5031912;28;20044;-52
2021/10/04 05:55:46;;;;;;;5.60;2.03;;;;;;;12.95;86.35;101299.00;5032056;28;20073;-54
2021/10/04 05:58:15;;;;;;;3.60;1.45;;;;;;;12.97;87.93;101306.94;4334424;28;9999917;-51
2021/10/04 06:00:44;;;;;;;3.38;1.77;;;;;;;12.81;85.35;101308.00;5029333;28;20053;-52
2021/10/04 06:03:12;;;;;;;2.25;1.30;;;;;;;12.91;88.23;101308.00;5029465;28;20095;-52
2021/10/04 06:05:40;;;;;;;3.15;1.50;;;;;;;12.97;88.80;101302.28;5029350;28;20514;-49
2021/10/04 06:08:07;;;;;;;3.10;1.25;;;;;;;13.06;87.20;101294.38;5028797;28;20558;-50
2021/10/04 06:10:35;;;;;;;4.35;1.25;;;;;;;13.14;86.85;101310.22;5029015;28;20049;-49
2021/10/04 06:13:03;;;;;;;4.15;1.10;;;;;;;13.17;87.58;101309.66;5029041;28;20496;-50
2021/10/04 06:15:31;;;;;;;1.60;1.30;;;;;;;13.14;84.63;101310.22;5029066;28;20560;-53
2021/10/04 06:17:59;;;;;;;3.33;1.52;;;;;;;13.15;85.13;101330.19;5029756;28;20091;-52
2021/10/04 06:20:28;;;;;;;2.28;1.42;;;;;;;13.10;85.52;101341.13;5028893;28;20048;-53
2021/10/04 06:22:58;;;;;;;5.10;1.60;;;;;;;12.95;85.11;101350.97;5028950;28;20037;-53
2021/10/04 06:25:26;;;;;;;6.72;1.95;;;;;;;12.90;84.12;101358.34;5029238;28;20393;-53
2021/10/04 06:27:55;;;;;;;2.70;1.45;;;;;;;13.07;87.29;101372.59;5028675;28;20057;-49
2021/10/04 06:30:23;;;;;;;4.82;1.80;;;;;;;12.85;84.74;101370.09;5029327;28;20041;-52
2021/10/04 06:32:51;;;;;;;3.92;1.75;;;;;;;12.74;85.09;101366.50;5029568;28;20151;-53
2021/10/04 06:35:18;;;;;;;5.30;1.65;;;;;;;12.71;85.96;101371.69;5027327;28;20512;-55
2021/10/04 06:37:46;;;;;;;4.85;1.95;;;;;;;12.69;85.60;101380.16;5029420;28;20414;-49
2021/10/04 06:40:16;;;;;;;7.13;1.88;;;;;;;12.64;86.49;101380.13;5028046;28;20735;-46
2021/10/04 06:42:45;;;;;;;13.95;3.45;;;;;;;12.63;86.75;101389.44;5027338;28;20045;-51
2021/10/04 06:45:14;;;;;;;10.63;3.53;;;;;;;12.63;86.33;101381.25;5028163;28;20060;-50
2021/10/04 06:47:41;;;;;;;10.20;3.17;;;;;;;12.62;87.07;101381.50;5028611;28;20037;-50
2021/10/04 06:50:09;;;;;;;11.18;3.38;;;;;;;12.59;85.78;101382.88;5028453;28;20053;-49
2021/10/04 06:52:38;;;;;;;13.15;3.88;;;;;;;12.57;86.37;101385.84;5028859;28;20484;-49
2021/10/04 06:55:07;;;;;;;16.92;3.30;;;;;;;12.70;87.41;101395.50;5028049;28;20064;-46
2021/10/04 06:57:54;;;;;;;11.23;5.10;;;;;;;12.68;86.63;101388.66;5023490;28;20053;-51
2021/10/04 07:00:23;;;;;;;10.63;3.33;;;;;;;12.61;85.94;101394.34;5027613;28;20137;-46
2021/10/04 07:02:52;;;;;;;8.73;2.58;;;;;;;12.57;85.01;101395.97;5028825;28;20140;-48
2021/10/04 07:05:22;;;;;;;6.20;2.38;;;;;;;12.52;84.80;101401.41;5028462;28;20163;-46
2021/10/04 07:07:51;;;;;;;6.20;2.08;;;;;;;12.51;85.08;101406.06;5028624;28;20048;-46
2021/10/04 07:10:19;;;;;;;5.57;1.88;;;;;;;12.48;84.18;101398.41;5027907;28;20053;-47
2021/10/04 07:12:47;;;;;;;7.97;2.50;;;;;;;12.52;85.21;101387.75;5028641;28;20045;-46
2021/10/04 07:15:14;;;;;;;6.95;2.42;;;;;;;12.54;86.27;101394.59;5029550;28;20124;-45
2021/10/04 07:17:42;;;;;;;9.98;2.65;;;;;;;12.56;85.64;101383.41;5032151;28;20045;-46
2021/10/04 07:20:10;;;;;;;7.50;2.30;;;;;;;12.55;86.93;101387.22;5031560;28;20041;-46
2021/10/04 07:22:39;;;;;;;9.80;2.47;;;;;;;12.54;86.19;101385.59;5031576;28;20041;-46
2021/10/04 07:25:08;;;;;;;6.32;2.45;;;;;;;12.51;85.81;101403.34;5032479;28;20049;-52
2021/10/04 07:27:35;;;;;;;4.65;1.65;;;;;;;12.50;85.85;101395.41;5032420;28;20146;-48
2021/10/04 07:30:04;;;;;;;4.55;1.90;;;;;;;12.48;85.18;101403.88;5030478;28;20050;-47
2021/10/04 07:32:33;;;;;;;5.22;2.00;;;;;;;12.48;85.01;101400.31;5032134;28;20112;-48
2021/10/04 07:35:00;;;;;;;6.85;2.17;;;;;;;12.48;85.79;101392.94;5031230;28;20057;-47
2021/10/04 07:37:28;;;;;;;6.55;2.10;;;;;;;12.47;85.32;101395.94;5032371;28;20079;-49
2021/10/04 07:39:56;;;;;;;8.20;2.28;;;;;;;12.47;84.33;101395.94;5032045;28;20037;-49
2021/10/04 07:42:23;;;;;;;4.88;1.58;;;;;;;12.46;84.66;101399.75;5030432;28;20041;-48
2021/10/04 07:44:51;;;;;;;4.30;2.00;;;;;;;12.47;84.57;101413.16;5033692;28;20424;-51
2021/10/04 07:47:19;;;;;;;8.93;2.30;;;;;;;12.48;84.27;101413.97;5033978;28;20041;-53
2021/10/04 07:49:46;;;;;;;29.02;7.00;;;;;;;12.71;88.46;101419.00;5034235;28;20056;-49
2021/10/04 07:52:14;;;;;;;28.52;7.15;;;;;;;12.77;85.89;101423.41;5034035;28;20046;-52
2021/10/04 07:54:42;;;;;;;7.93;2.97;;;;;;;12.69;84.72;101421.16;5033934;28;20156;-49
2021/10/04 07:57:15;;;;;;;14.27;3.15;;;;;;;12.63;84.16;101422.25;5033858;28;20055;-49
2021/10/04 07:59:42;;;;;;;30.65;8.10;;;;;;;12.76;88.21;101427.22;5034102;28;20053;-47
2021/10/04 08:02:10;;;;;;;11.70;3.80;;;;;;;12.83;85.27;101415.22;5033803;28;20459;-49
2021/10/04 08:04:39;;;;;;;18.92;6.72;;;;;;;12.95;87.59;101411.13;5033535;28;20095;-48
2021/10/04 08:07:07;;;;;;;15.60;4.55;;;;;;;13.02;84.86;101416.34;5034035;28;20049;-50
2021/10/04 08:09:34;;;;;;;30.73;8.70;;;;;;;13.29;87.35;101415.34;5033868;28;20045;-53
2021/10/04 08:12:03;;;;;;;18.42;4.95;;;;;;;13.22;84.93;101424.59;5033467;28;20046;-52
2021/10/04 08:14:31;;;;;;;16.83;6.07;;;;;;;13.19;86.37;101419.69;5033624;28;20046;-48
2021/10/04 08:17:00;;;;;;;16.70;4.13;;;;;;;13.10;85.21;101415.81;5033566;28;20053;-49
2021/10/04 08:19:28;;;;;;;16.40;4.90;;;;;;;13.24;86.00;101410.66;5033563;28;20120;-49
2021/10/04 08:21:56;;;;;;;14.50;4.60;;;;;;;13.32;86.51;101412.88;5033821;28;20042;-45
2021/10/04 08:24:23;;;;;;;18.17;5.88;;;;;;;13.48;84.06;101410.97;5032230;28;20100;-49
2021/10/04 08:26:51;;;;;;;17.63;4.57;;;;;;;13.45;84.97;101418.94;5035422;28;20045;-48
2021/10/04 08:29:18;;;;;;;9.27;2.90;;;;;;;13.32;83.03;101415.59;5036868;28;20499;-46
2021/10/04 08:31:46;;;;;;;16.75;4.68;;;;;;;13.44;84.91;101415.34;5036790;28;20046;-50
2021/10/04 08:34:14;;;;;;;14.15;4.00;;;;;;;13.52;84.28;101416.75;5036932;28;20068;-49
2021/10/04 08:36:41;;;;;;;15.63;4.90;;;;;;;13.90;82.19;101423.56;5034204;28;20385;-51
2021/10/04 08:39:09;;;;;;;15.55;5.22;;;;;;;14.13;81.91;101426.84;5033831;28;20044;-49
2021/10/04 08:41:38;;;;;;;11.38;4.10;;;;;;;14.36;81.00;101420.75;5033548;28;20037;-49
2021/10/04 08:44:08;;;;;;;12.05;3.50;;;;;;;14.14;79.73;101422.97;5031429;28;20044;-49
2021/10/04 08:46:38;;;;;;;8.90;3.13;;;;;;;13.87;81.52;101417.81;5032473;28;20511;-50
2021/10/04 08:49:11;;;;;;;10.95;3.78;;;;;;;14.05;81.74;101425.47;5033184;28;20056;-49
2021/10/04 08:51:38;;;;;;;11.45;3.33;;;;;;;13.88;80.39;101420.31;5033379;28;20408;-49
2021/10/04 08:54:07;;;;;;;10.90;3.55;;;;;;;13.95;81.24;101423.56;5033326;28;20041;-49
2021/10/04 08:56:37;;;;;;;8.45;2.92;;;;;;;13.93;81.04;101428.50;5032865;28;20041;-49
2021/10/04 08:59:04;;;;;;;8.80;3.00;;;;;;;13.80;82.80;101424.38;5032453;28;20048;-50
2021/10/04 09:01:32;;;;;;;8.93;3.30;;;;;;;13.84;81.88;101428.22;5032302;28;20037;-47
2021/10/04 09:04:02;;;;;;;8.77;2.88;;;;;;;13.91;81.78;101425.22;5032919;28;20042;-48
2021/10/04 09:06:38;;;;;;;8.32;2.72;;;;;;;13.68;82.00;101431.25;5032265;28;20029;-51
2021/10/04 09:09:11;;;;;;;8.77;2.75;;;;;;;13.85;83.62;101423.56;5032989;28;20045;-48
2021/10/04 09:11:44;;;;;;;10.20;2.92;;;;;;;13.94;83.42;101421.91;5032709;28;20061;-49
2021/10/04 09:14:17;;;;;;;11.63;3.45;;;;;;;14.19;80.97;101425.72;5032286;28;20056;-49
2021/10/04 09:17:10;;;;;;;4.57;2.03;;;;;;;14.02;82.71;101420.53;5031829;28;20046;-50
2021/10/04 09:19:40;;;;;;;5.82;2.20;;;;;;;14.23;81.97;101411.16;5010601;28;20053;-49
2021/10/04 09:22:28;;;;;;;7.65;2.63;;;;;;;14.39;79.05;101425.66;5010422;28;20508;-49
2021/10/04 09:24:58;;;;;;;9.02;2.78;;;;;;;14.44;80.03;101425.66;5010244;28;20057;-51
2021/10/04 09:27:37;;;;;;;7.50;2.50;;;;;;;14.39;79.63;101424.84;5009494;28;20056;-50
2021/10/04 09:30:17;;;;;;;6.68;1.85;;;;;;;14.51;80.26;101421.81;5009779;28;20571;-46
2021/10/04 09:32:47;;;;;;;6.43;1.88;;;;;;;14.72;79.42;101434.38;4994066;28;20067;-50
2021/10/04 09:35:20;;;;;;;9.90;3.47;;;;;;;14.64;78.74;101423.97;5010129;28;20052;-49
2021/10/04 09:37:51;;;;;;;6.80;2.33;;;;;;;14.75;77.11;101417.34;5008932;28;20045;-47
2021/10/04 09:40:37;;;;;;;9.05;2.78;;;;;;;14.89;76.56;101429.34;5010260;28;20138;-49
2021/10/04 09:43:24;;;;;;;6.75;2.20;;;;;;;14.90;77.02;101422.75;5009853;28;20046;-50
2021/10/04 09:46:06;;;;;;;10.02;2.90;;;;;;;14.69;78.36;101424.75;5009438;28;20049;-50
2021/10/04 09:48:34;;;;;;;6.47;2.08;;;;;;;14.52;78.04;101428.91;5008959;28;20042;-49
2021/10/04 09:51:15;;;;;;;7.50;2.05;;;;;;;14.41;78.49;101419.91;5009934;28;20575;-47
2021/10/04 09:54:11;;;;;;;6.78;2.80;;;;;;;14.72;78.48;101423.41;5009973;28;20501;-48
2021/10/04 09:56:39;;;;;;;10.80;4.05;;;;;;;14.68;77.14;101416.81;5020117;28;20052;-46
2021/10/04 09:59:09;;;;;;;26.08;12.27;;;;;;;14.76;77.22;101421.72;5030504;28;20496;-48
2021/10/04 10:01:37;;;;;;;36.60;15.45;;;;;;;14.95;76.87;101424.63;5031678;28;20053;-49
2021/10/04 10:04:05;;;;;;;39.20;16.02;;;;;;;14.89;76.26;101431.28;5031806;28;20038;-49
2021/10/04 10:06:33;;;;;;;42.53;17.27;;;;;;;15.07;76.78;101414.13;5031242;28;20091;-47
2021/10/04 10:09:02;;;;;;;33.60;16.35;;;;;;;15.16;76.79;101406.13;5031861;28;20068;-48
2021/10/04 10:11:32;;;;;;;38.92;16.05;;;;;;;15.39;75.64;101412.00;5031266;28;20404;-48
2021/10/04 10:14:00;;;;;;;37.95;14.93;;;;;;;15.36;74.11;101404.34;5031524;28;20052;-47
2021/10/04 10:16:36;;;;;;;37.17;14.50;;;;;;;15.40;75.56;101405.44;5031070;28;20152;-46
2021/10/04 10:19:05;;;;;;;;;;;;;;;15.34;75.57;101413.72;5031896;28;20045;-48
2021/10/04 10:21:34;;;;;;;37.85;13.93;;;;;;;15.24;75.08;101418.44;5030425;28;19921;-50
2021/10/04 10:24:13;;;;;;;19.40;9.07;;;;;;;15.36;73.69;101404.34;5031601;28;20049;-48
2021/10/04 10:26:41;;;;;;;18.73;6.30;;;;;;;15.14;73.15;101408.34;5030182;28;20129;-49
2021/10/04 10:29:20;;;;;;;19.58;7.15;;;;;;;15.02;75.05;101416.91;5030776;28;20041;-49
2021/10/04 10:31:52;;;;;;;13.50;6.50;;;;;;;14.93;74.04;101415.06;5031365;28;20041;-48
2021/10/04 10:34:32;;;;;;;78.20;36.13;;;;;;;15.07;75.46;101416.88;5031693;28;20061;-50
2021/10/04 10:37:21;;;;;;;29.52;15.77;;;;;;;15.08;73.71;101423.19;5029954;28;20084;-49
2021/10/04 10:40:20;;;;;;;47.67;23.90;;;;;;;14.98;77.04;101420.50;5031094;28;20536;-48
2021/10/04 10:43:03;;;;;;;94.22;45.75;;;;;;;15.25;77.08;101407.19;5025777;28;20038;-49
2021/10/04 10:45:41;;;;;;;63.42;30.42;;;;;;;15.21;73.64;101413.53;5031629;28;20041;-50
2021/10/04 10:48:09;;;;;;;96.97;45.88;;;;;;;15.24;74.31;101418.44;5018630;28;20041;-49
2021/10/04 10:50:39;;;;;;;79.63;41.90;;;;;;;15.38;74.00;101413.13;5034726;28;20073;-49
2021/10/04 10:53:13;;;;;;;38.92;21.35;;;;;;;15.20;74.99;101434.66;5035249;28;20092;-48
2021/10/04 10:55:41;;;;;;;111.20;50.53;;;;;;;15.40;77.06;101421.91;5035244;28;20045;-48
2021/10/04 10:58:14;;;;;;;91.25;48.35;;;;;;;15.49;74.41;101432.00;5034851;28;20038;-49
2021/10/04 11:00:45;;;;;;;72.65;36.03;;;;;;;15.59;70.49;101431.09;5035287;28;20052;-49
2021/10/04 11:03:15;;;;;;;70.38;35.00;;;;;;;15.63;71.52;101428.56;5034756;28;20424;-48
2021/10/04 11:05:43;;;;;;;92.70;31.23;;;;;;;15.74;75.24;101433.72;5035360;28;20100;-48
2021/10/04 11:08:50;;;;;;;80.95;38.95;;;;;;;15.84;70.07;101432.00;5034832;28;20539;-49
2021/10/04 11:11:18;;;;;;;80.45;41.40;;;;;;;15.67;72.80;101427.72;5011763;28;20141;-46
2021/10/04 11:14:10;;;;;;;69.47;34.35;;;;;;;15.56;74.12;101426.16;4995914;28;20460;-49
2021/10/04 11:16:43;;;;;;;69.82;36.78;;;;;;;15.54;74.48;101425.63;5012277;28;20056;-49
2021/10/04 11:19:21;;;;;;;44.75;20.75;;;;;;;15.56;72.40;101437.13;5012449;28;20124;-50
2021/10/04 11:21:51;;;;;;;38.42;19.88;;;;;;;15.43;69.67;101429.56;5012529;28;20049;-49
2021/10/04 11:24:19;;;;;;;40.13;19.42;;;;;;;15.49;71.78;101437.47;5011767;28;20149;-46
2021/10/04 11:26:47;;;;;;;19.33;9.10;;;;;;;15.59;72.14;101430.28;5012044;28;20536;-50
2021/10/04 11:29:18;;;;;;;74.57;32.15;;;;;;;15.94;73.50;101432.72;5012546;28;20049;-49
2021/10/04 11:31:46;;;;;;;45.22;20.75;;;;;;;16.28;67.81;101422.75;5012104;28;20057;-46
2021/10/04 11:34:20;;;;;;;61.20;31.25;;;;;;;16.19;70.78;101434.41;5012586;28;20061;-46